Terminal Aerodrome Forecast
Issued by NWS Charleston, WV

Current Version | Previous Version | Text Only | Print | Product List | Glossary Off
Versions: 1 2 3 4 5 6 7 8 9 10 11 12 13 14 15 16 17 18 19 20 21 22 23 24 25

000
FTUS41 KRLX 282300 RRA
TAFPKB
TAF
KPKB 282343Z 2900/2924 00000KT P6SM FEW150
     FM290900 00000KT P6SM BKN110
     FM291400 16006KT P6SM BKN100
     FM291600 17007KT 6SM -RA BR BKN070
     FM291900 19008KT 5SM -RA BR OVC025
     FM292300 23008KT 5SM -RA BR OVC025=

USA.gov is the U.S. government's official web portal to all federal, state and local government web resources and services.